Terminal Aerodrome Forecast
Issued by NWS

Home | Current Version | Previous Version | Text Only | Print | Product List | Glossary On
Versions: 1 2 3 4 5 6 7 8 9 10 11 12 13 14
000
FTUS45 KTFX 031129
TAFBZN
TAF
KBZN 031129Z 0312/0412 15006KT P6SM VCTS SCT035CB BKN090
     FM031600 25006KT P6SM SCT090 OVC180
     FM032000 32010G20KT P6SM VCSH BKN090
     FM040600 21008KT P6SM -SHRA SCT025 OVC040=

USA.gov is the U.S. government's official web portal to all federal, state and local government web resources and services.